createdAt,value
2023-05-25T00:00:07.804Z,55.41
2023-05-25T00:02:43.048Z,55.73
2023-05-25T00:05:14.666Z,55.59
2023-05-25T00:07:45.209Z,56.08
2023-05-25T00:10:15.975Z,56.15
2023-05-25T00:12:46.454Z,56.63
2023-05-25T00:15:16.989Z,56.60
2023-05-25T00:17:50.845Z,56.79
2023-05-25T00:20:21.409Z,56.72
2023-05-25T00:22:52.403Z,56.87
2023-05-25T00:25:22.922Z,57.18
2023-05-25T00:27:53.358Z,57.43
2023-05-25T00:30:24.037Z,57.63
2023-05-25T00:32:57.039Z,58.15
2023-05-25T00:35:27.570Z,57.58
2023-05-25T00:37:58.058Z,57.74
2023-05-25T00:40:28.508Z,57.84
2023-05-25T00:42:59.536Z,57.97
2023-05-25T00:45:30.073Z,58.12
2023-05-25T00:48:04.399Z,58.23
2023-05-25T00:50:43.760Z,58.48
2023-05-25T00:53:16.452Z,58.37
2023-05-25T00:56:00.147Z,58.54
2023-05-25T00:58:34.425Z,58.49
2023-05-25T01:01:11.978Z,58.81
2023-05-25T01:03:54.243Z,58.77
2023-05-25T01:06:27.397Z,58.81
2023-05-25T01:09:02.700Z,59.05
2023-05-25T01:11:39.539Z,58.89
2023-05-25T01:14:10.024Z,59.20
2023-05-25T01:16:41.132Z,59.88
2023-05-25T01:19:14.230Z,60.73
2023-05-25T01:21:52.858Z,60.65
2023-05-25T01:24:32.946Z,60.61
2023-05-25T01:27:12.516Z,60.87
2023-05-25T01:29:46.651Z,61.55
2023-05-25T01:32:18.836Z,61.59
2023-05-25T01:34:51.849Z,61.75
2023-05-25T01:37:26.659Z,61.86
2023-05-25T01:39:56.885Z,62.16
2023-05-25T01:42:27.333Z,62.55
2023-05-25T01:44:57.836Z,62.82
2023-05-25T01:47:36.515Z,63.14
2023-05-25T01:50:14.043Z,63.28
2023-05-25T01:52:54.726Z,63.47
2023-05-25T01:55:29.784Z,63.62
2023-05-25T01:58:02.860Z,63.92
2023-05-25T02:00:34.473Z,64.15
2023-05-25T02:03:05.651Z,64.03
2023-05-25T02:05:36.373Z,64.77
2023-05-25T02:08:11.376Z,64.82
2023-05-25T02:10:41.791Z,64.99
2023-05-25T02:13:12.213Z,65.23
2023-05-25T02:15:43.579Z,65.33
2023-05-25T02:18:14.352Z,65.30
2023-05-25T02:20:45.052Z,64.84
2023-05-25T02:23:18.913Z,64.80
2023-05-25T02:25:49.396Z,64.75
2023-05-25T02:28:20.286Z,64.68
2023-05-25T02:30:51.143Z,64.78
2023-05-25T02:33:21.968Z,64.96
2023-05-25T02:35:53.542Z,65.23
2023-05-25T02:38:26.708Z,65.67
2023-05-25T02:40:57.399Z,65.71
2023-05-25T02:43:28.593Z,65.33
2023-05-25T02:45:58.962Z,65.47
2023-05-25T02:48:29.449Z,65.65
2023-05-25T02:51:00.353Z,66.16
2023-05-25T02:53:33.676Z,66.31
2023-05-25T02:56:06.939Z,66.37
2023-05-25T02:58:38.912Z,66.60
2023-05-25T03:01:18.724Z,66.92
2023-05-25T03:03:55.043Z,67.07
2023-05-25T03:06:28.148Z,67.33
2023-05-25T03:09:11.916Z,67.49
2023-05-25T03:11:43.663Z,67.31
2023-05-25T03:14:18.409Z,67.39
2023-05-25T03:16:56.531Z,67.45
2023-05-25T03:19:27.708Z,67.66
2023-05-25T03:21:58.326Z,67.97
2023-05-25T03:24:31.462Z,67.85
2023-05-25T03:27:04.655Z,68.09
2023-05-25T03:29:35.052Z,67.95
2023-05-25T03:32:05.772Z,68.00
2023-05-25T03:34:38.092Z,68.38
2023-05-25T03:37:09.578Z,68.51
2023-05-25T03:39:42.800Z,68.58
2023-05-25T03:42:13.195Z,68.58
2023-05-25T03:44:43.726Z,68.89
2023-05-25T03:47:14.128Z,69.13
2023-05-25T03:49:44.657Z,69.46
2023-05-25T03:52:16.697Z,69.52
2023-05-25T03:54:49.781Z,69.79
2023-05-25T03:57:20.112Z,70.00
2023-05-25T03:59:50.602Z,70.21
2023-05-25T04:02:21.215Z,70.19
2023-05-25T04:04:53.881Z,70.39
2023-05-25T04:07:24.524Z,70.30
2023-05-25T04:09:59.682Z,70.28
2023-05-25T04:12:30.807Z,70.38
2023-05-25T04:15:01.246Z,70.37
2023-05-25T04:17:32.715Z,70.46
2023-05-25T04:20:04.385Z,70.33
2023-05-25T04:22:35.166Z,70.43
2023-05-25T04:25:10.608Z,70.42
2023-05-25T04:27:42.457Z,70.73
2023-05-25T04:30:15.552Z,70.79
2023-05-25T04:33:03.069Z,70.99
2023-05-25T04:35:38.136Z,71.54
2023-05-25T04:38:08.697Z,70.93
2023-05-25T04:40:42.063Z,71.31
2023-05-25T04:43:14.062Z,71.52
2023-05-25T04:45:51.562Z,71.51
2023-05-25T04:48:24.769Z,71.50
2023-05-25T04:50:56.024Z,71.70
2023-05-25T04:53:27.071Z,71.43
2023-05-25T04:56:00.161Z,71.92
2023-05-25T04:58:31.700Z,72.19
2023-05-25T05:01:02.223Z,72.19
2023-05-25T05:03:32.890Z,72.55
2023-05-25T05:06:04.833Z,72.41
2023-05-25T05:08:36.530Z,72.66
2023-05-25T05:11:09.725Z,72.13
2023-05-25T05:13:40.182Z,72.09
2023-05-25T05:16:11.452Z,72.51
2023-05-25T05:18:41.878Z,72.90
2023-05-25T05:21:12.317Z,73.51
2023-05-25T05:23:45.778Z,73.55
2023-05-25T05:26:19.489Z,73.71
2023-05-25T05:28:52.755Z,73.43
2023-05-25T05:31:27.524Z,74.00
2023-05-25T05:33:58.204Z,74.13
2023-05-25T05:36:31.984Z,73.57
2023-05-25T05:39:05.054Z,73.52
2023-05-25T05:41:38.164Z,73.70
2023-05-25T05:44:08.922Z,73.04
2023-05-25T05:46:40.053Z,73.08
2023-05-25T05:49:10.522Z,72.78
2023-05-25T05:51:40.965Z,72.80
2023-05-25T05:54:11.881Z,72.99
2023-05-25T05:56:45.158Z,72.82
2023-05-25T05:59:16.722Z,73.64
2023-05-25T06:01:47.448Z,73.84
2023-05-25T06:04:18.511Z,74.28
2023-05-25T06:06:49.084Z,74.34
2023-05-25T06:09:20.368Z,74.86
2023-05-25T06:11:53.447Z,75.07
2023-05-25T06:14:25.191Z,74.97
2023-05-25T06:16:57.346Z,74.06
2023-05-25T06:19:28.774Z,74.36
2023-05-25T06:21:59.211Z,73.94
2023-05-25T06:24:30.316Z,74.44
2023-05-25T06:27:03.407Z,74.05
2023-05-25T06:29:33.829Z,74.09
2023-05-25T06:32:04.322Z,73.95
2023-05-25T06:34:37.937Z,73.65
2023-05-25T06:37:08.949Z,72.60
2023-05-25T06:39:40.230Z,73.01
2023-05-25T06:42:14.115Z,73.52
2023-05-25T06:44:54.806Z,72.58
2023-05-25T06:47:25.441Z,72.15
2023-05-25T06:49:56.704Z,72.54
2023-05-25T06:52:28.338Z,72.66
2023-05-25T06:54:59.527Z,71.97
2023-05-25T06:57:32.764Z,71.35
2023-05-25T07:00:03.272Z,71.35
2023-05-25T07:02:34.774Z,72.49
2023-05-25T07:05:05.964Z,71.12
2023-05-25T07:07:36.890Z,71.05
2023-05-25T07:10:12.207Z,71.09
2023-05-25T07:12:45.339Z,70.39
2023-05-25T07:15:16.656Z,69.94
2023-05-25T07:17:47.620Z,69.85
2023-05-25T07:20:18.390Z,70.07
2023-05-25T07:22:50.814Z,70.71
2023-05-25T07:25:21.616Z,70.67
2023-05-25T07:27:55.716Z,70.48
2023-05-25T07:30:26.323Z,70.12
2023-05-25T07:32:57.161Z,70.71
2023-05-25T07:35:28.156Z,71.08
2023-05-25T07:38:02.951Z,71.08
2023-05-25T07:40:33.948Z,70.58
2023-05-25T07:43:08.413Z,70.54
2023-05-25T07:45:39.079Z,70.67
2023-05-25T07:48:10.309Z,70.13
2023-05-25T07:50:40.864Z,69.89
2023-05-25T07:53:11.430Z,69.54
2023-05-25T07:55:41.934Z,69.59
2023-05-25T07:58:15.236Z,69.21
2023-05-25T08:00:45.718Z,68.32
2023-05-25T08:03:16.881Z,67.31
2023-05-25T08:05:47.657Z,67.87
2023-05-25T08:08:18.039Z,68.70
2023-05-25T08:10:48.439Z,69.68
2023-05-25T08:13:21.643Z,69.02
2023-05-25T08:15:52.650Z,68.18
2023-05-25T08:18:23.077Z,67.77
2023-05-25T08:20:53.565Z,66.81
2023-05-25T08:23:24.200Z,68.10
2023-05-25T08:25:54.830Z,68.02
2023-05-25T08:28:28.012Z,66.32
2023-05-25T08:30:58.990Z,67.99
2023-05-25T08:33:29.560Z,67.93
2023-05-25T08:36:00.259Z,67.48
2023-05-25T08:38:31.516Z,67.46
2023-05-25T08:41:10.519Z,66.35
2023-05-25T08:43:45.581Z,66.74
2023-05-25T08:46:17.077Z,67.07
2023-05-25T08:48:49.836Z,66.11
2023-05-25T08:51:21.573Z,66.35
2023-05-25T08:53:53.047Z,66.71
2023-05-25T08:56:23.891Z,66.37
2023-05-25T08:59:06.769Z,65.72
2023-05-25T09:01:44.106Z,65.51
2023-05-25T09:04:19.860Z,65.46
2023-05-25T09:07:02.069Z,65.19
2023-05-25T09:09:42.528Z,65.39
2023-05-25T09:12:13.805Z,66.65
2023-05-25T09:14:48.433Z,67.24
2023-05-25T09:17:21.313Z,66.20
2023-05-25T09:19:53.842Z,65.60
2023-05-25T09:22:24.525Z,68.34
2023-05-25T09:24:56.506Z,64.47
2023-05-25T09:27:27.247Z,65.01
2023-05-25T09:30:02.008Z,64.90
2023-05-25T09:32:34.368Z,65.36
2023-05-25T09:35:10.738Z,64.12
2023-05-25T09:37:42.214Z,63.61
2023-05-25T09:40:17.592Z,61.55
2023-05-25T09:42:49.074Z,61.76
2023-05-25T09:45:22.330Z,64.37
2023-05-25T09:47:52.985Z,62.56
2023-05-25T09:50:23.879Z,61.48
2023-05-25T09:53:01.261Z,61.30
2023-05-25T09:55:44.284Z,61.60
2023-05-25T09:58:22.575Z,61.12
2023-05-25T10:00:57.640Z,61.37
2023-05-25T10:03:28.097Z,62.43
2023-05-25T10:05:59.015Z,61.61
2023-05-25T10:08:30.600Z,61.72
2023-05-25T10:11:01.962Z,62.09
2023-05-25T10:13:35.118Z,61.75
2023-05-25T10:16:13.328Z,59.32
2023-05-25T10:18:50.817Z,60.01
2023-05-25T10:21:22.353Z,60.79
2023-05-25T10:23:57.451Z,60.33
2023-05-25T10:26:31.068Z,59.72
2023-05-25T10:29:04.720Z,60.85
2023-05-25T10:31:38.993Z,58.86
2023-05-25T10:34:09.471Z,58.80
2023-05-25T10:36:41.307Z,58.59
2023-05-25T10:39:12.834Z,57.69
2023-05-25T10:41:43.887Z,57.52
2023-05-25T10:44:15.806Z,57.80
2023-05-25T10:46:49.480Z,58.59
2023-05-25T10:49:34.323Z,57.75
2023-05-25T10:52:05.689Z,56.65
2023-05-25T10:54:39.770Z,56.32
2023-05-25T10:57:15.347Z,56.84
2023-05-25T10:59:46.411Z,56.54
2023-05-25T11:02:23.592Z,56.61
2023-05-25T11:04:55.098Z,55.79
2023-05-25T11:07:25.522Z,56.72
2023-05-25T11:10:02.324Z,57.33
2023-05-25T11:12:32.904Z,55.37
2023-05-25T11:15:19.549Z,55.36
2023-05-25T11:18:03.134Z,54.03
2023-05-25T11:20:34.116Z,53.15
2023-05-25T11:23:28.780Z,54.34
2023-05-25T11:26:09.175Z,53.45
2023-05-25T11:28:49.645Z,54.08
2023-05-25T11:31:23.599Z,53.21
2023-05-25T11:34:01.086Z,51.04
2023-05-25T11:36:33.717Z,51.09
2023-05-25T11:39:14.191Z,51.90
2023-05-25T11:41:55.709Z,52.43
2023-05-25T11:44:31.635Z,52.93
2023-05-25T11:47:08.947Z,53.03
2023-05-25T11:49:46.370Z,52.88
2023-05-25T11:52:18.595Z,51.05
2023-05-25T11:54:49.959Z,50.16
2023-05-25T11:57:22.897Z,50.41
2023-05-25T11:59:55.077Z,49.92
2023-05-25T12:02:27.026Z,48.95
2023-05-25T12:05:01.901Z,48.44
2023-05-25T12:07:34.001Z,49.04
2023-05-25T12:10:12.141Z,49.05
2023-05-25T12:12:45.917Z,50.04
2023-05-25T12:15:20.607Z,50.24
2023-05-25T12:17:52.463Z,50.18
2023-05-25T12:20:25.974Z,48.58
2023-05-25T12:22:56.836Z,48.38
2023-05-25T12:25:35.755Z,47.98
2023-05-25T12:28:18.341Z,46.72
2023-05-25T12:30:48.896Z,47.53
2023-05-25T12:33:19.402Z,47.31
2023-05-25T12:35:54.044Z,45.61
2023-05-25T12:38:24.857Z,46.68
2023-05-25T12:41:09.755Z,46.86
2023-05-25T12:43:43.360Z,45.29
2023-05-25T12:46:13.931Z,45.74
2023-05-25T12:48:44.591Z,46.27
2023-05-25T12:51:17.661Z,45.67
2023-05-25T12:53:52.874Z,44.97
2023-05-25T12:56:23.335Z,43.85
2023-05-25T12:58:53.823Z,44.34
2023-05-25T13:01:24.455Z,44.42
2023-05-25T13:03:56.460Z,44.59
2023-05-25T13:06:32.175Z,42.27
2023-05-25T13:09:02.724Z,43.85
2023-05-25T13:11:33.226Z,44.54
2023-05-25T13:14:03.772Z,43.99
2023-05-25T13:16:35.881Z,42.86
2023-05-25T13:19:06.463Z,42.54
2023-05-25T13:21:40.585Z,43.10
2023-05-25T13:24:11.201Z,42.85
2023-05-25T13:26:41.823Z,42.73
2023-05-25T13:29:12.391Z,42.77
2023-05-25T13:31:43.005Z,43.26
2023-05-25T13:34:13.663Z,43.70
2023-05-25T13:36:46.894Z,42.33
2023-05-25T13:39:17.325Z,42.36
2023-05-25T13:41:48.416Z,41.76
2023-05-25T13:44:19.025Z,42.36
2023-05-25T13:46:49.576Z,42.04
2023-05-25T13:49:20.141Z,40.75
2023-05-25T13:51:53.194Z,40.31
2023-05-25T13:54:23.750Z,41.10
2023-05-25T13:56:54.163Z,41.37
2023-05-25T13:59:24.792Z,40.70
2023-05-25T14:01:56.186Z,40.25
2023-05-25T14:04:26.889Z,40.21
2023-05-25T14:07:00.156Z,40.03
2023-05-25T14:09:30.945Z,39.01
2023-05-25T14:12:01.792Z,39.95
2023-05-25T14:14:32.986Z,40.05
2023-05-25T14:17:03.923Z,39.87
2023-05-25T14:19:35.387Z,40.40
2023-05-25T14:22:13.838Z,40.34
2023-05-25T14:24:45.190Z,39.85
2023-05-25T14:27:16.307Z,39.82
2023-05-25T14:29:46.783Z,40.31
2023-05-25T14:32:17.418Z,39.40
2023-05-25T14:34:48.749Z,39.75
2023-05-25T14:37:21.918Z,39.63
2023-05-25T14:39:52.823Z,38.65
2023-05-25T14:42:23.302Z,38.40
2023-05-25T14:44:53.919Z,38.61
2023-05-25T14:47:24.488Z,38.07
2023-05-25T14:49:55.814Z,38.61
2023-05-25T14:52:28.866Z,37.82
2023-05-25T14:54:59.490Z,37.00
2023-05-25T14:57:29.994Z,37.48
2023-05-25T15:00:00.571Z,37.29
2023-05-25T15:02:31.222Z,37.48
2023-05-25T15:05:02.064Z,37.47
2023-05-25T15:07:35.300Z,36.53
2023-05-25T15:10:05.769Z,35.98
2023-05-25T15:12:36.286Z,35.90
2023-05-25T15:15:07.226Z,36.06
2023-05-25T15:17:37.856Z,35.00
2023-05-25T15:20:09.861Z,34.90
2023-05-25T15:22:42.956Z,35.70
2023-05-25T15:25:18.920Z,34.88
2023-05-25T15:27:52.253Z,34.17
2023-05-25T15:30:23.076Z,34.43
2023-05-25T15:32:53.565Z,34.39
2023-05-25T15:35:31.015Z,33.67
2023-05-25T15:38:04.638Z,33.72
2023-05-25T15:40:37.196Z,34.19
2023-05-25T15:43:08.038Z,33.20
2023-05-25T15:45:38.615Z,33.00
2023-05-25T15:48:10.556Z,32.12
2023-05-25T15:50:41.049Z,33.13
2023-05-25T15:53:14.238Z,33.70
2023-05-25T15:55:44.981Z,33.83
2023-05-25T15:58:16.892Z,32.93
2023-05-25T16:00:47.468Z,33.02
2023-05-25T16:03:17.952Z,32.39
2023-05-25T16:05:48.589Z,32.09
2023-05-25T16:08:21.936Z,32.22
2023-05-25T16:10:52.422Z,32.17
2023-05-25T16:13:22.888Z,32.10
2023-05-25T16:15:53.386Z,32.07
2023-05-25T16:18:23.899Z,32.32
2023-05-25T16:20:58.007Z,32.25
2023-05-25T16:23:31.233Z,32.32
2023-05-25T16:26:01.638Z,32.56
2023-05-25T16:28:32.246Z,31.21
2023-05-25T16:31:02.772Z,31.59
2023-05-25T16:33:33.153Z,30.81
2023-05-25T16:36:03.609Z,30.91
2023-05-25T16:38:36.946Z,31.26
2023-05-25T16:41:07.719Z,31.12
2023-05-25T16:43:38.099Z,31.43
2023-05-25T16:46:08.683Z,30.94
2023-05-25T16:48:39.340Z,30.89
2023-05-25T16:51:15.381Z,31.47
2023-05-25T16:53:48.411Z,30.72
2023-05-25T16:56:19.232Z,31.19
2023-05-25T16:58:49.786Z,31.48
2023-05-25T17:01:20.422Z,31.66
2023-05-25T17:03:51.059Z,31.59
2023-05-25T17:06:21.718Z,30.97
2023-05-25T17:08:55.916Z,31.53
2023-05-25T17:11:26.715Z,31.54
2023-05-25T17:13:57.606Z,30.97
2023-05-25T17:16:28.172Z,30.97
2023-05-25T17:18:58.543Z,30.10
2023-05-25T17:21:28.914Z,30.68
2023-05-25T17:24:01.904Z,31.46
2023-05-25T17:26:32.362Z,31.27
2023-05-25T17:29:03.469Z,31.05
2023-05-25T17:31:33.941Z,30.91
2023-05-25T17:34:04.471Z,31.45
2023-05-25T17:36:34.982Z,30.92
2023-05-25T17:39:08.441Z,31.37
2023-05-25T17:41:38.817Z,31.78
2023-05-25T17:44:09.267Z,31.32
2023-05-25T17:46:39.766Z,32.04
2023-05-25T17:49:10.236Z,32.31
2023-05-25T17:51:40.561Z,32.93
2023-05-25T17:54:18.547Z,32.77
2023-05-25T17:56:49.015Z,32.53
2023-05-25T17:59:19.443Z,32.42
2023-05-25T18:01:49.987Z,32.39
2023-05-25T18:04:20.743Z,32.78
2023-05-25T18:06:52.489Z,32.94
2023-05-25T18:09:25.514Z,32.62
2023-05-25T18:11:56.361Z,33.10
2023-05-25T18:14:27.077Z,33.08
2023-05-25T18:16:57.493Z,33.55
2023-05-25T18:19:28.155Z,34.04
2023-05-25T18:21:58.558Z,35.22
2023-05-25T18:24:31.697Z,35.91
2023-05-25T18:27:03.911Z,36.70
2023-05-25T18:29:34.391Z,37.38
2023-05-25T18:32:04.810Z,37.21
2023-05-25T18:34:35.277Z,36.92
2023-05-25T18:37:05.680Z,39.40
2023-05-25T18:39:38.871Z,36.67
2023-05-25T18:42:10.612Z,39.43
2023-05-25T18:44:41.065Z,39.18
2023-05-25T18:47:12.067Z,40.01
2023-05-25T18:49:42.976Z,39.73
2023-05-25T18:52:13.472Z,40.37
2023-05-25T18:54:46.526Z,40.90
2023-05-25T18:57:17.299Z,40.91
2023-05-25T18:59:47.730Z,41.59
2023-05-25T19:02:18.486Z,41.53
2023-05-25T19:04:49.123Z,41.99
2023-05-25T19:07:19.643Z,42.49
2023-05-25T19:09:52.826Z,41.77
2023-05-25T19:12:23.262Z,43.12
2023-05-25T19:14:53.930Z,43.30
2023-05-25T19:17:24.524Z,42.97
2023-05-25T19:19:55.504Z,43.93
2023-05-25T19:22:25.995Z,45.12
2023-05-25T19:25:00.981Z,44.49
2023-05-25T19:27:32.173Z,45.04
2023-05-25T19:30:02.888Z,44.26
2023-05-25T19:32:33.812Z,44.97
2023-05-25T19:35:04.339Z,46.21
2023-05-25T19:37:35.008Z,44.87
2023-05-25T19:40:09.824Z,45.50
2023-05-25T19:42:40.441Z,46.23
2023-05-25T19:45:13.367Z,46.70
2023-05-25T19:47:43.970Z,46.45
2023-05-25T19:50:14.878Z,46.79
2023-05-25T19:52:45.520Z,47.57
2023-05-25T19:55:18.547Z,47.58
2023-05-25T19:57:49.012Z,47.83
2023-05-25T20:00:25.970Z,48.07
2023-05-25T20:02:57.762Z,47.34
2023-05-25T20:05:28.287Z,48.22
2023-05-25T20:07:58.909Z,48.75
2023-05-25T20:10:32.869Z,48.31
2023-05-25T20:13:03.555Z,46.85
2023-05-25T20:15:34.016Z,47.28
2023-05-25T20:18:05.595Z,47.59
2023-05-25T20:20:38.378Z,47.34
2023-05-25T20:23:09.865Z,48.45
2023-05-25T20:25:43.051Z,48.09
2023-05-25T20:28:13.920Z,49.50
2023-05-25T20:30:46.548Z,50.71
2023-05-25T20:33:17.336Z,51.03
2023-05-25T20:35:47.945Z,50.34
2023-05-25T20:38:18.494Z,50.63
2023-05-25T20:40:51.939Z,51.83
2023-05-25T20:43:22.324Z,51.74
2023-05-25T20:45:52.969Z,51.22
2023-05-25T20:48:23.419Z,50.83
2023-05-25T20:50:54.078Z,52.94
2023-05-25T20:53:24.716Z,53.17
2023-05-25T20:55:59.883Z,53.57
2023-05-25T20:58:30.275Z,53.77
2023-05-25T21:01:01.153Z,53.30
2023-05-25T21:03:31.996Z,53.27
2023-05-25T21:06:03.207Z,53.25
2023-05-25T21:08:33.725Z,54.44
2023-05-25T21:11:06.933Z,53.72
2023-05-25T21:13:37.740Z,54.07
2023-05-25T21:16:09.121Z,53.56
2023-05-25T21:18:39.798Z,55.08
2023-05-25T21:21:11.404Z,55.27
2023-05-25T21:23:42.106Z,54.54
2023-05-25T21:26:15.490Z,54.59
2023-05-25T21:28:46.183Z,54.49
2023-05-25T21:31:16.728Z,55.20
2023-05-25T21:33:47.553Z,56.19
2023-05-25T21:36:18.298Z,56.26
2023-05-25T21:38:48.921Z,57.00
2023-05-25T21:41:23.517Z,55.23
2023-05-25T21:43:53.963Z,55.62
2023-05-25T21:46:24.676Z,55.12
2023-05-25T21:48:55.560Z,56.40
2023-05-25T21:51:26.188Z,56.79
2023-05-25T21:53:56.940Z,55.99
2023-05-25T21:56:30.490Z,55.96
2023-05-25T21:59:01.268Z,54.50
2023-05-25T22:01:32.039Z,55.92
2023-05-25T22:04:02.915Z,56.26
2023-05-25T22:06:33.373Z,56.20
2023-05-25T22:09:04.064Z,56.24
2023-05-25T22:11:37.636Z,57.37
2023-05-25T22:14:08.050Z,56.93
2023-05-25T22:16:38.526Z,57.12
2023-05-25T22:19:09.101Z,55.80
2023-05-25T22:21:39.611Z,56.69
2023-05-25T22:24:10.240Z,56.22
2023-05-25T22:26:43.695Z,56.39
2023-05-25T22:29:14.308Z,55.85
2023-05-25T22:31:44.852Z,56.19
2023-05-25T22:34:15.278Z,55.83
2023-05-25T22:36:45.940Z,56.40
2023-05-25T22:39:18.919Z,56.75
2023-05-25T22:41:53.269Z,56.28
2023-05-25T22:44:24.115Z,54.91
2023-05-25T22:46:54.660Z,56.62
2023-05-25T22:49:25.520Z,56.28
2023-05-25T22:51:56.093Z,56.84
2023-05-25T22:54:26.700Z,57.30
2023-05-25T22:56:59.647Z,56.46
2023-05-25T22:59:30.345Z,56.92
2023-05-25T23:02:01.000Z,57.73
2023-05-25T23:04:33.741Z,57.12
2023-05-25T23:07:05.415Z,58.16
2023-05-25T23:09:37.145Z,58.39
2023-05-25T23:12:10.364Z,58.39
2023-05-25T23:14:40.807Z,58.49
2023-05-25T23:17:11.318Z,58.16
2023-05-25T23:19:41.845Z,57.92
2023-05-25T23:22:12.200Z,57.69
2023-05-25T23:24:42.627Z,57.66
2023-05-25T23:27:15.635Z,57.70
2023-05-25T23:29:46.060Z,58.16
2023-05-25T23:32:16.485Z,57.08
2023-05-25T23:34:47.052Z,58.01
2023-05-25T23:37:20.696Z,57.21
2023-05-25T23:39:51.363Z,58.12
2023-05-25T23:42:24.441Z,57.46
2023-05-25T23:44:54.850Z,57.24
2023-05-25T23:47:25.351Z,57.69
2023-05-25T23:49:55.818Z,57.61
2023-05-25T23:52:26.377Z,57.44
2023-05-25T23:54:57.100Z,58.03
2023-05-25T23:57:30.409Z,58.41
